Bayou Current, Louisiana
Current Conditions -  °F | °C
As of 10:15 PM on Tuesday 21 Oct 2014 (Local Time) from KHZR Reporting Station
Clear Clear  
Wind Chill: 64°   Ceiling: Unl
Heat Index: 64°   Visibility: 10mi
Dew Point: 60°   Wind: 5mph
Humidity: 86%   Direction: 30°NNE
Pressure: 30.05"   Gusts: NA
Location:  30.6648°N, 91.7944°W
Report Text: KHZR 220315Z AUTO 03004KT 10SM CLR 18/15 A3005 RMK AO2 T01760153
Loading
Personal Weather Stations






























Interactive Weather Map
Tropical Storm Tracking
New forecast layout! Learn more

10-Day Weather Forecast

Advertisements
Track Severe Weather on mobile